Time;durP1;ratioP1;P1;durP2;ratioP2;P2;SDS_P1;SDS_P2;PMS_P1;PMS_P2;Temp;Humidity;BMP_temperature;BMP_pressure;BME280_temperature;BME280_humidity;BME280_pressure;Samples;Min_cycle;Max_cycle;Signal;HPM_P1;HPM_P2
2024/02/06 00:00:35;;;;;;;232.73;81.13;;;;;6.70;96974.00;;;;4980889;28;20427;-67
2024/02/06 00:03:24;;;;;;;240.30;86.33;;;;;6.50;96974.00;;;;4980625;28;20419;-67
2024/02/06 00:06:13;;;;;;;241.63;82.83;;;;;6.70;96973.00;;;;4980752;28;21030;-67
2024/02/06 00:09:02;;;;;;;255.47;90.43;;;;;6.20;96970.00;;;;4977929;28;20420;-67
2024/02/06 00:11:53;;;;;;;309.17;117.17;;;;;4.70;96959.00;;;;4964712;28;21706;-65
2024/02/06 00:14:42;;;;;;;242.03;81.13;;;;;4.80;96960.00;;;;4979163;28;21256;-67
2024/02/06 00:17:31;;;;;;;284.57;102.73;;;;;4.70;96957.00;;;;4978157;28;20975;-67
2024/02/06 00:20:20;;;;;;;323.97;95.63;;;;;5.50;96961.00;;;;4983294;28;20442;-67
2024/02/06 00:23:09;;;;;;;333.90;112.13;;;;;6.30;96973.00;;;;4982064;28;20525;-67
2024/02/06 00:25:58;;;;;;;326.73;88.23;;;;;6.20;96961.00;;;;4979456;28;20421;-67
2024/02/06 00:28:48;;;;;;;288.47;87.07;;;;;6.10;96962.00;;;;4976707;28;20458;-67
2024/02/06 00:31:37;;;;;;;219.47;79.13;;;;;5.30;96949.00;;;;4972057;28;20442;-68
2024/02/06 00:34:26;;;;;;;231.77;82.50;;;;;4.10;96942.00;;;;4975720;28;20435;-66
2024/02/06 00:37:16;;;;;;;344.50;116.07;;;;;5.10;96939.00;;;;4975301;28;20446;-68
2024/02/06 00:40:08;;;;;;;301.87;99.87;;;;;5.80;96941.00;;;;4972336;28;20439;-68
2024/02/06 00:42:57;;;;;;;330.47;126.53;;;;;5.10;96926.00;;;;4975379;28;20439;-67
2024/02/06 00:45:47;;;;;;;215.03;75.77;;;;;4.40;96926.00;;;;4967952;28;20831;-67
2024/02/06 00:48:36;;;;;;;217.03;79.87;;;;;5.00;96928.00;;;;4973418;28;20833;-68
2024/02/06 00:51:25;;;;;;;214.27;79.87;;;;;5.30;96935.00;;;;4986142;28;20985;-67
2024/02/06 00:54:14;;;;;;;238.47;88.00;;;;;5.40;96930.00;;;;4972729;28;20434;-67
2024/02/06 00:57:03;;;;;;;217.93;74.87;;;;;4.70;96935.00;;;;4977653;28;20477;-67
2024/02/06 00:59:52;;;;;;;252.47;88.67;;;;;4.70;96932.00;;;;4972063;28;20441;-67
2024/02/06 01:02:43;;;;;;;297.90;85.07;;;;;4.60;96941.00;;;;4954044;28;20470;-67
2024/02/06 01:05:32;;;;;;;307.47;77.20;;;;;5.20;96939.00;;;;4975236;28;20777;-67
2024/02/06 01:08:21;;;;;;;284.93;108.13;;;;;5.50;96933.00;;;;4977467;28;20454;-67
2024/02/06 01:11:10;;;;;;;244.80;78.37;;;;;5.30;96939.00;;;;4975829;28;20441;-67
2024/02/06 01:13:59;;;;;;;243.10;80.37;;;;;5.70;96933.00;;;;4987120;28;20985;-67
2024/02/06 01:16:48;;;;;;;196.70;74.27;;;;;5.60;96926.00;;;;4986057;28;20457;-67
2024/02/06 01:19:38;;;;;;;199.27;74.90;;;;;4.10;96925.00;;;;4981370;28;20435;-67
2024/02/06 01:22:27;;;;;;;212.27;77.50;;;;;4.60;96929.00;;;;4974414;28;20496;-67
2024/02/06 01:25:16;;;;;;;247.13;83.50;;;;;4.40;96912.00;;;;4975285;28;20441;-67
2024/02/06 01:28:06;;;;;;;253.67;91.13;;;;;4.30;96914.00;;;;4979817;28;20461;-67
2024/02/06 01:30:55;;;;;;;330.47;91.40;;;;;4.90;96906.00;;;;4972860;28;20431;-66
2024/02/06 01:33:44;;;;;;;302.20;72.40;;;;;5.60;96915.00;;;;4972427;28;20419;-66
2024/02/06 01:36:36;;;;;;;299.67;78.63;;;;;5.00;96904.00;;;;4979362;28;20467;-67
2024/02/06 01:39:25;;;;;;;340.47;96.83;;;;;4.00;96893.00;;;;4979644;28;20821;-65
2024/02/06 01:42:38;;;;;;;330.90;103.67;;;;;4.50;96890.00;;;;4985364;28;20423;-68
2024/02/06 01:45:27;;;;;;;292.20;92.73;;;;;5.10;96897.00;;;;4978852;28;20442;-67
2024/02/06 01:48:16;;;;;;;187.67;75.50;;;;;5.50;96891.00;;;;4978106;28;20446;-67
2024/02/06 01:51:07;;;;;;;320.23;87.77;;;;;5.20;96892.00;;;;4980514;28;20950;-67
2024/02/06 01:53:59;;;;;;;218.50;77.77;;;;;4.80;96888.00;;;;4975807;28;20442;-69
2024/02/06 01:56:48;;;;;;;271.37;87.30;;;;;5.10;96890.00;;;;4981065;28;20473;-68
2024/02/06 01:59:37;;;;;;;192.40;70.70;;;;;5.20;96876.00;;;;4973617;28;20439;-67
2024/02/06 02:02:27;;;;;;;193.67;73.90;;;;;4.50;96879.00;;;;4974036;28;20419;-68
2024/02/06 02:05:17;;;;;;;232.37;81.40;;;;;3.70;96870.00;;;;4975790;28;20442;-66
2024/02/06 02:08:07;;;;;;;141.10;68.93;;;;;4.70;96878.00;;;;4981845;28;20444;-67
2024/02/06 02:10:57;;;;;;;175.50;71.07;;;;;4.70;96863.00;;;;4983661;28;20806;-66
2024/02/06 02:13:47;;;;;;;197.90;72.87;;;;;4.30;96860.00;;;;4950205;28;20419;-66
2024/02/06 02:16:36;;;;;;;217.00;81.90;;;;;4.20;96854.00;;;;4988390;28;21001;-67
2024/02/06 02:19:25;;;;;;;97.60;56.60;;;;;4.60;96860.00;;;;4980066;28;20425;-67
2024/02/06 02:22:16;;;;;;;91.67;54.37;;;;;4.70;96852.00;;;;4982628;28;20446;-68
2024/02/06 02:25:05;;;;;;;79.50;48.60;;;;;5.10;96846.00;;;;4973149;28;20427;-67
2024/02/06 02:27:54;;;;;;;91.40;52.60;;;;;4.80;96837.00;;;;4976990;28;20839;-66
2024/02/06 02:30:44;;;;;;;98.70;54.43;;;;;3.90;96829.00;;;;4982818;28;20419;-68
2024/02/06 02:33:33;;;;;;;107.13;57.23;;;;;3.50;96832.00;;;;4975687;28;20434;-68
2024/02/06 02:36:22;;;;;;;156.67;68.80;;;;;2.90;96818.00;;;;4980194;28;20474;-66
2024/02/06 02:39:14;;;;;;;253.33;81.73;;;;;3.80;96818.00;;;;4971341;28;20805;-66
2024/02/06 02:42:04;;;;;;;321.57;83.17;;;;;4.60;96835.00;;;;4980844;28;20441;-67
2024/02/06 02:44:53;;;;;;;333.00;112.90;;;;;4.40;96826.00;;;;4971993;28;20435;-67
2024/02/06 02:47:44;;;;;;;255.70;83.60;;;;;3.30;96814.00;;;;4978345;28;20439;-67
2024/02/06 02:50:34;;;;;;;195.67;69.73;;;;;4.00;96803.00;;;;4981353;28;20427;-66
2024/02/06 02:53:23;;;;;;;211.77;75.20;;;;;4.60;96814.00;;;;4979842;28;20427;-65
2024/02/06 02:56:15;;;;;;;211.00;71.90;;;;;4.90;96802.00;;;;4978446;28;20435;-67
2024/02/06 02:59:04;;;;;;;233.53;79.27;;;;;4.30;96809.00;;;;4975345;28;20983;-67
2024/02/06 03:01:53;;;;;;;231.53;74.13;;;;;4.40;96806.00;;;;4987799;28;20438;-67
2024/02/06 03:04:43;;;;;;;244.07;77.33;;;;;4.70;96797.00;;;;4978266;28;20468;-66
2024/02/06 03:07:32;;;;;;;243.53;79.27;;;;;4.60;96815.00;;;;4980816;28;20445;-67
2024/02/06 03:10:21;;;;;;;223.37;76.30;;;;;4.60;96808.00;;;;4971939;28;20422;-66
2024/02/06 03:13:12;;;;;;;237.17;79.83;;;;;4.80;96807.00;;;;4977343;28;20435;-66
2024/02/06 03:16:01;;;;;;;237.43;76.13;;;;;4.80;96809.00;;;;4978958;28;20423;-68
2024/02/06 03:18:50;;;;;;;292.67;86.73;;;;;5.00;96804.00;;;;4975478;28;20460;-68
2024/02/06 03:21:39;;;;;;;149.63;66.37;;;;;4.40;96807.00;;;;4988490;28;20521;-68
2024/02/06 03:24:28;;;;;;;106.23;58.67;;;;;3.50;96796.00;;;;4973530;28;20430;-66
2024/02/06 03:27:17;;;;;;;104.07;57.53;;;;;4.20;96800.00;;;;4981395;28;20828;-68
2024/02/06 03:30:09;;;;;;;119.73;62.50;;;;;4.50;96792.00;;;;4980836;28;20434;-68
2024/02/06 03:32:58;;;;;;;134.50;73.57;;;;;4.80;96804.00;;;;4975898;28;20819;-67
2024/02/06 03:35:48;;;;;;;111.03;56.83;;;;;4.10;96794.00;;;;4983253;28;20446;-68
2024/02/06 03:38:37;;;;;;;137.47;67.43;;;;;3.80;96793.00;;;;4988877;28;20466;-66
2024/02/06 03:41:26;;;;;;;246.63;79.97;;;;;3.40;96800.00;;;;4978206;28;20442;-66
2024/02/06 03:44:15;;;;;;;304.77;118.43;;;;;4.50;96788.00;;;;4985544;28;20430;-66
2024/02/06 03:47:06;;;;;;;313.87;101.70;;;;;4.50;96795.00;;;;4985368;28;20448;-66
2024/02/06 03:49:55;;;;;;;285.30;88.90;;;;;4.30;96802.00;;;;4972322;28;20437;-66
2024/02/06 03:52:45;;;;;;;195.10;69.87;;;;;3.30;96789.00;;;;4978311;28;20462;-65
2024/02/06 03:55:34;;;;;;;274.33;93.73;;;;;4.10;96792.00;;;;4975777;28;20978;-67
2024/02/06 03:58:23;;;;;;;281.63;89.93;;;;;4.00;96780.00;;;;4977397;28;20485;-67
2024/02/06 04:01:12;;;;;;;216.87;73.20;;;;;4.40;96785.00;;;;4978980;28;20434;-66
2024/02/06 04:04:03;;;;;;;223.23;77.93;;;;;3.60;96787.00;;;;4983007;28;20437;-66
2024/02/06 04:06:52;;;;;;;266.00;74.73;;;;;3.80;96782.00;;;;4979584;28;20438;-66
2024/02/06 04:09:41;;;;;;;220.97;72.13;;;;;3.90;96778.00;;;;4986130;28;20442;-67
2024/02/06 04:12:30;;;;;;;226.03;75.43;;;;;4.20;96789.00;;;;4980558;28;20967;-66
2024/02/06 04:15:20;;;;;;;289.10;79.90;;;;;3.80;96773.00;;;;4984597;28;20435;-66
2024/02/06 04:18:09;;;;;;;333.60;96.73;;;;;3.80;96778.00;;;;4977429;28;20458;-66
2024/02/06 04:21:00;;;;;;;246.67;76.87;;;;;4.10;96778.00;;;;4985129;28;20495;-68
2024/02/06 04:23:49;;;;;;;216.53;71.20;;;;;4.10;96782.00;;;;4987488;28;20751;-69
2024/02/06 04:26:38;;;;;;;216.33;72.53;;;;;3.60;96769.00;;;;4988373;28;20436;-68
2024/02/06 04:29:27;;;;;;;154.03;68.43;;;;;3.50;96770.00;;;;4984339;28;20432;-69
2024/02/06 04:32:17;;;;;;;301.23;99.10;;;;;4.30;96778.00;;;;4971129;28;20430;-67
2024/02/06 04:35:07;;;;;;;220.80;81.63;;;;;3.80;96776.00;;;;4977740;28;20485;-68
2024/02/06 04:37:58;;;;;;;109.17;57.43;;;;;4.20;96759.00;;;;4978657;28;20474;-69
2024/02/06 04:40:47;;;;;;;75.23;47.27;;;;;3.30;96764.00;;;;4975654;28;20432;-68
2024/02/06 04:43:36;;;;;;;71.77;45.77;;;;;3.90;96765.00;;;;4977605;28;20440;-68
2024/02/06 04:46:25;;;;;;;75.23;48.00;;;;;3.70;96759.00;;;;4981098;28;20438;-68
2024/02/06 04:49:14;;;;;;;73.00;47.93;;;;;4.40;96764.00;;;;4978563;28;20435;-68
2024/02/06 04:52:04;;;;;;;68.60;45.80;;;;;4.40;96765.00;;;;4980251;28;20437;-66
2024/02/06 04:54:54;;;;;;;58.73;42.17;;;;;3.10;96752.00;;;;4969311;28;20935;-68
2024/02/06 04:57:43;;;;;;;58.07;42.93;;;;;3.90;96759.00;;;;4981116;28;20504;-68
2024/02/06 05:00:32;;;;;;;134.50;73.43;;;;;4.50;96749.00;;;;4978222;28;20472;-68
2024/02/06 05:03:21;;;;;;;74.57;48.00;;;;;4.50;96757.00;;;;4977545;28;20414;-68
2024/02/06 05:06:11;;;;;;;55.57;40.77;;;;;3.10;96722.00;;;;4984382;28;20959;-68
2024/02/06 05:09:00;;;;;;;71.97;46.63;;;;;3.00;96734.00;;;;4983000;28;20438;-66
2024/02/06 05:11:51;;;;;;;48.27;37.13;;;;;4.10;96739.00;;;;4978011;28;20435;-66
2024/02/06 05:14:40;;;;;;;48.87;38.20;;;;;4.30;96741.00;;;;4979030;28;20423;-67
2024/02/06 05:17:29;;;;;;;70.63;45.83;;;;;3.90;96755.00;;;;4971959;28;21412;-67
2024/02/06 05:20:18;;;;;;;57.47;42.30;;;;;3.30;96743.00;;;;4967872;28;20975;-67
2024/02/06 05:23:09;;;;;;;77.50;49.70;;;;;4.40;96741.00;;;;4980529;28;20436;-67
2024/02/06 05:25:58;;;;;;;61.27;43.87;;;;;4.50;96744.00;;;;4978267;28;20432;-67
2024/02/06 05:28:49;;;;;;;61.80;43.33;;;;;3.90;96744.00;;;;4979062;28;20457;-67
2024/02/06 05:31:38;;;;;;;58.90;42.07;;;;;4.00;96745.00;;;;4976880;28;20443;-67
2024/02/06 05:34:27;;;;;;;77.60;51.13;;;;;4.50;96734.00;;;;4984160;28;20442;-67
2024/02/06 05:37:16;;;;;;;63.80;44.17;;;;;4.30;96731.00;;;;4974338;28;20449;-67
2024/02/06 05:40:11;;;;;;;70.33;46.37;;;;;4.20;96726.00;;;;4971574;28;20443;-67
2024/02/06 05:43:00;;;;;;;75.10;49.37;;;;;4.20;96730.00;;;;4969801;28;20936;-67
2024/02/06 05:45:51;;;;;;;60.77;44.00;;;;;4.60;96754.00;;;;4976816;28;20445;-67
2024/02/06 05:48:40;;;;;;;68.07;45.73;;;;;3.80;96739.00;;;;4982869;28;20451;-67
2024/02/06 05:51:29;;;;;;;176.57;93.37;;;;;3.80;96743.00;;;;4950414;28;20437;-68
2024/02/06 05:54:18;;;;;;;76.70;49.17;;;;;4.60;96745.00;;;;4970031;28;20423;-67
2024/02/06 05:57:07;;;;;;;204.47;107.87;;;;;4.50;96744.00;;;;4975573;28;20448;-67
2024/02/06 05:59:56;;;;;;;73.07;46.00;;;;;4.30;96740.00;;;;4974094;28;20430;-67
2024/02/06 06:02:47;;;;;;;216.90;115.23;;;;;4.30;96752.00;;;;4956494;28;20499;-67
2024/02/06 06:05:36;;;;;;;62.77;43.63;;;;;4.40;96744.00;;;;4967121;28;20437;-67
2024/02/06 06:08:25;;;;;;;60.43;41.13;;;;;3.60;96732.00;;;;4967487;28;20546;-67
2024/02/06 06:11:17;;;;;;;56.63;41.50;;;;;4.70;96750.00;;;;4963567;28;20440;-67
2024/02/06 06:14:06;;;;;;;171.13;86.10;;;;;4.40;96746.00;;;;4963249;28;20443;-67
2024/02/06 06:16:55;;;;;;;48.20;38.53;;;;;3.90;96741.00;;;;4957712;28;20496;-67
2024/02/06 06:19:46;;;;;;;57.27;41.97;;;;;4.50;96736.00;;;;4970629;28;21173;-67
2024/02/06 06:22:35;;;;;;;52.50;41.10;;;;;4.30;96751.00;;;;4941707;28;21028;-68
2024/02/06 06:25:24;;;;;;;129.13;67.47;;;;;3.80;96742.00;;;;4964208;28;20452;-67
2024/02/06 06:28:13;;;;;;;65.37;44.77;;;;;3.90;96733.00;;;;4973278;28;20470;-68
2024/02/06 06:31:05;;;;;;;60.00;43.70;;;;;4.60;96745.00;;;;4953664;28;20445;-66
2024/02/06 06:33:54;;;;;;;217.53;110.23;;;;;5.00;96735.00;;;;4925860;28;20587;-68
2024/02/06 06:36:45;;;;;;;66.77;46.60;;;;;4.90;96743.00;;;;4963577;28;21027;-69
2024/02/06 06:39:34;;;;;;;81.10;51.63;;;;;4.30;96735.00;;;;4965946;28;20482;-66
2024/02/06 06:42:24;;;;;;;88.77;55.53;;;;;4.40;96732.00;;;;4974708;28;20443;-68
2024/02/06 06:45:13;;;;;;;150.60;78.37;;;;;4.80;96736.00;;;;4963905;28;23076;-68
2024/02/06 06:48:02;;;;;;;94.97;56.57;;;;;4.70;96744.00;;;;4943857;28;20465;-68
2024/02/06 06:50:51;;;;;;;88.23;52.57;;;;;3.60;96718.00;;;;4974356;28;20454;-67
2024/02/06 06:53:42;;;;;;;114.17;61.93;;;;;4.70;96734.00;;;;4973273;28;20976;-68
2024/02/06 06:56:31;;;;;;;205.00;78.53;;;;;4.70;96730.00;;;;4973423;28;20431;-68
2024/02/06 06:59:20;;;;;;;340.00;143.20;;;;;4.40;96733.00;;;;4958978;28;21004;-69
2024/02/06 07:02:09;;;;;;;329.47;126.03;;;;;3.80;96724.00;;;;4940701;28;20433;-66
2024/02/06 07:05:01;;;;;;;375.43;149.47;;;;;4.60;96743.00;;;;4946206;28;20469;-68
2024/02/06 07:07:51;;;;;;;444.23;182.50;;;;;3.60;96733.00;;;;4941283;28;20477;-67
2024/02/06 07:10:41;;;;;;;331.63;132.97;;;;;4.20;96743.00;;;;4939244;28;20559;-67
2024/02/06 07:13:32;;;;;;;408.53;157.23;;;;;5.10;96742.00;;;;4936844;28;20859;-68
2024/02/06 07:16:21;;;;;;;379.43;111.70;;;;;5.00;96740.00;;;;4937771;28;20442;-68
2024/02/06 07:19:10;;;;;;;458.80;191.97;;;;;5.20;96745.00;;;;4938513;28;20485;-67
2024/02/06 07:22:00;;;;;;;373.27;150.17;;;;;5.50;96751.00;;;;4937561;28;20441;-67
2024/02/06 07:24:51;;;;;;;266.57;69.97;;;;;5.30;96750.00;;;;4977857;28;21041;-67
2024/02/06 07:27:41;;;;;;;247.93;76.33;;;;;4.70;96735.00;;;;4976379;28;20834;-67
2024/02/06 07:30:31;;;;;;;333.57;120.87;;;;;5.00;96733.00;;;;4976616;28;20438;-67
2024/02/06 07:33:21;;;;;;;328.87;98.60;;;;;5.70;96745.00;;;;4968738;28;20473;-68
2024/02/06 07:36:11;;;;;;;189.27;72.73;;;;;6.30;96752.00;;;;4981184;28;20442;-68
2024/02/06 07:39:00;;;;;;;268.93;81.37;;;;;6.30;96754.00;;;;4981066;28;20473;-68
2024/02/06 07:41:49;;;;;;;222.30;74.30;;;;;6.20;96759.00;;;;4970972;28;20445;-66
2024/02/06 07:44:40;;;;;;;219.23;75.50;;;;;5.40;96747.00;;;;4973960;28;21417;-68
2024/02/06 07:47:29;;;;;;;244.20;84.07;;;;;5.10;96741.00;;;;4975495;28;20454;-66
2024/02/06 07:50:18;;;;;;;285.87;77.10;;;;;5.70;96744.00;;;;4971229;28;20434;-68
2024/02/06 07:53:07;;;;;;;318.83;109.70;;;;;6.30;96744.00;;;;4972793;28;20432;-68
2024/02/06 07:55:56;;;;;;;311.60;96.57;;;;;6.60;96754.00;;;;4977254;28;20443;-66
2024/02/06 07:58:45;;;;;;;307.63;102.27;;;;;6.10;96746.00;;;;4973617;28;20454;-68
2024/02/06 08:01:36;;;;;;;354.27;121.37;;;;;5.20;96730.00;;;;4971216;28;20446;-66
2024/02/06 08:04:25;;;;;;;202.33;81.17;;;;;6.10;96752.00;;;;4972913;28;20439;-67
2024/02/06 08:07:14;;;;;;;195.00;76.27;;;;;6.50;96757.00;;;;4980978;28;20561;-67
2024/02/06 08:10:04;;;;;;;193.40;78.53;;;;;6.20;96756.00;;;;4979789;28;20897;-67
2024/02/06 08:12:56;;;;;;;197.27;76.67;;;;;6.20;96756.00;;;;4974920;28;20435;-67
2024/02/06 08:15:45;;;;;;;197.07;76.50;;;;;6.40;96750.00;;;;4982644;28;20553;-67
2024/02/06 08:18:35;;;;;;;204.47;82.27;;;;;6.70;96745.00;;;;4972384;28;20477;-67
2024/02/06 08:21:24;;;;;;;206.67;85.37;;;;;7.20;96756.00;;;;4975032;28;20439;-67
2024/02/06 08:24:14;;;;;;;194.77;78.23;;;;;6.90;96732.00;;;;4973565;28;20434;-68
2024/02/06 08:27:04;;;;;;;199.37;80.63;;;;;7.30;96745.00;;;;4975314;28;20481;-67
2024/02/06 08:29:53;;;;;;;199.20;81.20;;;;;7.60;96748.00;;;;4980708;28;20433;-68
2024/02/06 08:32:42;;;;;;;201.87;84.07;;;;;8.10;96755.00;;;;4974172;28;20439;-68
2024/02/06 08:35:32;;;;;;;223.63;96.27;;;;;7.80;96742.00;;;;4978982;28;20431;-67
2024/02/06 08:38:21;;;;;;;206.50;85.03;;;;;7.40;96740.00;;;;4976932;28;20230;-66
2024/02/06 08:41:11;;;;;;;210.50;82.70;;;;;7.40;96750.00;;;;4977422;28;20609;-66
2024/02/06 08:44:00;;;;;;;213.50;85.57;;;;;7.60;96734.00;;;;4980986;28;20218;-67
2024/02/06 08:46:51;;;;;;;220.33;86.67;;;;;8.50;96743.00;;;;4976963;28;20213;-66
2024/02/06 08:49:40;;;;;;;222.57;85.87;;;;;8.30;96744.00;;;;4978772;28;20203;-67
2024/02/06 08:52:31;;;;;;;238.57;92.70;;;;;8.10;96736.00;;;;4979616;28;20652;-67
2024/02/06 08:55:20;;;;;;;223.33;84.97;;;;;8.60;96748.00;;;;4975861;28;20203;-67
2024/02/06 08:58:10;;;;;;;243.63;96.17;;;;;8.00;96734.00;;;;4980488;28;20230;-67
2024/02/06 09:00:59;;;;;;;237.17;92.87;;;;;8.50;96725.00;;;;4976947;28;20220;-64
2024/02/06 09:03:49;;;;;;;238.60;93.07;;;;;9.00;96722.00;;;;4983355;28;20215;-67
2024/02/06 09:06:39;;;;;;;250.17;94.17;;;;;9.30;96727.00;;;;4982862;28;20203;-68
2024/02/06 09:09:29;;;;;;;253.97;94.73;;;;;9.50;96732.00;;;;4977913;28;20660;-67
2024/02/06 09:12:18;;;;;;;254.10;96.57;;;;;9.90;96728.00;;;;4980605;28;20207;-66
2024/02/06 09:15:08;;;;;;;258.27;96.03;;;;;10.30;96714.00;;;;4990304;28;20207;-67
2024/02/06 09:17:58;;;;;;;262.90;96.33;;;;;10.60;96723.00;;;;4975884;28;20235;-67
2024/02/06 09:20:48;;;;;;;269.17;102.07;;;;;10.30;96702.00;;;;4976951;28;20602;-68
2024/02/06 09:23:37;;;;;;;290.53;109.90;;;;;11.00;96708.00;;;;4972341;28;20248;-66
2024/02/06 09:26:27;;;;;;;300.77;108.57;;;;;11.60;96703.00;;;;4984543;28;20202;-65
2024/02/06 09:29:16;;;;;;;308.70;102.03;;;;;11.60;96703.00;;;;4979541;28;20204;-68
2024/02/06 09:32:06;;;;;;;345.57;106.27;;;;;11.30;96701.00;;;;4980374;28;20207;-67
2024/02/06 09:34:55;;;;;;;350.37;128.60;;;;;11.20;96699.00;;;;4977858;28;20203;-67
2024/02/06 09:37:47;;;;;;;283.37;111.47;;;;;12.10;96702.00;;;;4978539;28;20241;-68
2024/02/06 09:40:36;;;;;;;307.13;116.30;;;;;12.40;96701.00;;;;4970730;28;20273;-67
2024/02/06 09:43:28;;;;;;;294.90;116.13;;;;;12.40;96694.00;;;;4973665;28;20242;-67
2024/02/06 09:46:18;;;;;;;270.67;120.40;;;;;12.40;96699.00;;;;4976845;28;20215;-66
2024/02/06 09:49:07;;;;;;;273.57;126.17;;;;;12.30;96695.00;;;;4975453;28;20199;-67
2024/02/06 09:51:57;;;;;;;247.97;115.83;;;;;13.20;96698.00;;;;4972602;28;20248;-67
2024/02/06 09:54:49;;;;;;;252.37;120.83;;;;;13.20;96690.00;;;;4971942;28;20202;-67
2024/02/06 09:57:40;;;;;;;243.67;115.17;;;;;13.00;96694.00;;;;4975800;28;21686;-66
2024/02/06 10:00:31;;;;;;;241.23;122.50;;;;;13.50;96691.00;;;;4974790;28;20223;-65
2024/02/06 10:03:24;;;;;;;251.07;131.90;;;;;14.20;96692.00;;;;4969435;28;20218;-65
2024/02/06 10:06:14;;;;;;;231.90;123.57;;;;;13.40;96679.00;;;;4975897;28;20696;-66
2024/02/06 10:09:03;;;;;;;255.50;132.37;;;;;13.90;96681.00;;;;4971548;28;20230;-68
2024/02/06 10:11:52;;;;;;;259.97;131.73;;;;;14.30;96671.00;;;;4978671;28;20206;-66
2024/02/06 10:14:41;;;;;;;249.10;129.80;;;;;15.10;96680.00;;;;4983946;28;20222;-68
2024/02/06 10:17:32;;;;;;;263.97;138.60;;;;;14.80;96669.00;;;;4980346;28;20250;-67
2024/02/06 10:20:21;;;;;;;251.87;136.77;;;;;15.30;96674.00;;;;4982726;28;20247;-66
2024/02/06 10:23:12;;;;;;;250.73;138.40;;;;;15.20;96662.00;;;;4976699;28;20730;-67
2024/02/06 10:26:04;;;;;;;248.40;140.57;;;;;15.80;96675.00;;;;4976595;28;20221;-67
2024/02/06 10:29:04;;;;;;;262.17;146.17;;;;;16.30;96681.00;;;;4973208;28;20219;-67
2024/02/06 10:31:58;;;;;;;258.70;142.63;;;;;16.80;96678.00;;;;4980319;28;20202;-67
2024/02/06 10:34:51;;;;;;;265.57;145.17;;;;;16.30;96677.00;;;;4976193;28;20614;-68
2024/02/06 10:37:41;;;;;;;265.60;148.83;;;;;17.30;96672.00;;;;4975932;28;20230;-66
2024/02/06 10:40:30;;;;;;;292.10;163.70;;;;;17.60;96666.00;;;;4979232;28;20656;-68
2024/02/06 10:43:19;;;;;;;302.33;167.87;;;;;18.20;96661.00;;;;4981293;28;21470;-67
2024/02/06 10:46:12;;;;;;;303.93;168.27;;;;;19.10;96656.00;;;;4983638;28;20210;-67
2024/02/06 10:49:04;;;;;;;324.00;196.73;;;;;19.80;96652.00;;;;4973606;28;20226;-67
2024/02/06 10:52:04;;;;;;;340.97;202.03;;;;;20.30;96647.00;;;;4981291;28;20300;-67
2024/02/06 10:54:54;;;;;;;348.07;217.97;;;;;20.40;96655.00;;;;4974552;28;20275;-68
2024/02/06 10:57:43;;;;;;;350.83;229.27;;;;;21.00;96637.00;;;;4974181;28;20231;-68
2024/02/06 11:00:35;;;;;;;368.67;247.00;;;;;21.10;96639.00;;;;4979221;28;20233;-68
2024/02/06 11:03:24;;;;;;;381.30;263.50;;;;;21.60;96635.00;;;;4983995;28;20211;-68
2024/02/06 11:06:18;;;;;;;386.30;270.50;;;;;21.90;96630.00;;;;4980289;28;20264;-68
2024/02/06 11:09:11;;;;;;;401.80;289.13;;;;;22.20;96642.00;;;;4978662;28;20206;-68
2024/02/06 11:12:01;;;;;;;391.53;295.30;;;;;22.80;96620.00;;;;4978279;28;20208;-68
2024/02/06 11:14:51;;;;;;;402.60;307.53;;;;;23.20;96628.00;;;;4975694;28;20221;-68
2024/02/06 11:17:41;;;;;;;405.93;323.43;;;;;23.60;96619.00;;;;4972722;28;20250;-68
2024/02/06 11:20:33;;;;;;;422.67;348.50;;;;;23.80;96631.00;;;;4975134;28;20227;-67
2024/02/06 11:23:23;;;;;;;421.10;357.47;;;;;23.90;96643.00;;;;4975910;28;20373;-68
2024/02/06 11:26:14;;;;;;;421.43;367.03;;;;;23.80;96625.00;;;;4975555;28;20225;-67
2024/02/06 11:29:06;;;;;;;428.57;375.90;;;;;24.00;96632.00;;;;4973699;28;20220;-67
2024/02/06 11:31:56;;;;;;;438.40;390.93;;;;;24.30;96620.00;;;;4971540;28;20225;-68
2024/02/06 11:34:52;;;;;;;439.67;392.23;;;;;24.70;96623.00;;;;4969529;28;20689;-68
2024/02/06 11:37:41;;;;;;;446.43;398.67;;;;;25.00;96617.00;;;;4974341;28;20316;-68
2024/02/06 11:40:31;;;;;;;473.80;424.03;;;;;24.80;96615.00;;;;4974585;28;20203;-68
2024/02/06 11:43:27;;;;;;;477.90;428.53;;;;;24.20;96602.00;;;;4981900;28;20234;-68
2024/02/06 11:46:18;;;;;;;473.27;424.80;;;;;24.60;96612.00;;;;4978830;28;20208;-67
2024/02/06 11:49:08;;;;;;;473.93;425.10;;;;;25.00;96595.00;;;;4980238;28;20725;-68
2024/02/06 11:51:58;;;;;;;472.20;424.17;;;;;24.90;96601.00;;;;4974384;28;20205;-68
2024/02/06 11:54:47;;;;;;;475.80;427.83;;;;;25.30;96600.00;;;;4975434;28;20200;-68
2024/02/06 11:57:37;;;;;;;494.37;444.63;;;;;25.40;96600.00;;;;4968693;28;20253;-68
2024/02/06 12:00:29;;;;;;;502.33;452.37;;;;;24.90;96593.00;;;;4977318;28;20218;-68
2024/02/06 12:03:18;;;;;;;500.50;450.67;;;;;24.30;96582.00;;;;4978251;28;20209;-68
2024/02/06 12:06:07;;;;;;;502.33;453.23;;;;;25.40;96589.00;;;;4984005;28;20213;-68
2024/02/06 12:09:03;;;;;;;507.80;457.97;;;;;24.20;96581.00;;;;4977198;28;20222;-67
2024/02/06 12:11:54;;;;;;;503.20;454.17;;;;;23.40;96573.00;;;;4975644;28;20203;-67
2024/02/06 12:14:43;;;;;;;501.63;452.40;;;;;24.60;96581.00;;;;4983560;28;20207;-68
2024/02/06 12:17:33;;;;;;;513.63;462.93;;;;;25.60;96579.00;;;;4978894;28;20615;-68
2024/02/06 12:20:24;;;;;;;510.50;460.53;;;;;26.20;96568.00;;;;4974191;28;20215;-67
2024/02/06 12:23:13;;;;;;;522.30;471.97;;;;;26.60;96571.00;;;;4976454;28;20234;-69
2024/02/06 12:26:03;;;;;;;522.43;472.53;;;;;27.20;96570.00;;;;4982333;28;20223;-67
2024/02/06 12:29:02;;;;;;;543.50;492.50;;;;;27.00;96571.00;;;;4980112;28;20238;-67
2024/02/06 12:31:51;;;;;;;548.23;497.90;;;;;26.90;96577.00;;;;4980426;28;20232;-69
2024/02/06 12:34:43;;;;;;;553.53;503.17;;;;;26.50;96574.00;;;;4985106;28;20680;-69
2024/02/06 12:37:32;;;;;;;555.20;504.17;;;;;25.60;96560.00;;;;4976454;28;20227;-66
2024/02/06 12:40:22;;;;;;;566.40;514.70;;;;;26.80;96554.00;;;;4980040;28;20212;-68
2024/02/06 12:43:12;;;;;;;560.87;509.30;;;;;26.80;96550.00;;;;4983486;28;20342;-68
2024/02/06 12:46:02;;;;;;;552.17;502.07;;;;;27.40;96544.00;;;;4977514;28;20221;-69
2024/02/06 12:48:53;;;;;;;574.03;523.07;;;;;28.00;96550.00;;;;4973702;28;20231;-67
2024/02/06 12:51:44;;;;;;;583.87;533.27;;;;;28.00;96568.00;;;;4978217;28;20224;-68
2024/02/06 12:54:33;;;;;;;590.83;538.87;;;;;28.10;96549.00;;;;4972882;28;20209;-68
2024/02/06 12:57:23;;;;;;;592.03;540.90;;;;;27.90;96541.00;;;;4975099;28;20242;-68
2024/02/06 13:00:13;;;;;;;599.73;548.00;;;;;28.00;96544.00;;;;4977005;28;20209;-68
2024/02/06 13:03:03;;;;;;;600.97;549.93;;;;;27.90;96550.00;;;;4971671;28;20218;-69
2024/02/06 13:05:56;;;;;;;605.80;554.50;;;;;28.30;96524.00;;;;4968728;28;20206;-68
2024/02/06 13:08:50;;;;;;;618.80;565.70;;;;;28.10;96536.00;;;;4975198;28;20266;-69
2024/02/06 13:11:39;;;;;;;601.47;549.37;;;;;27.70;96517.00;;;;4971460;28;20238;-68
2024/02/06 13:14:29;;;;;;;600.97;549.70;;;;;29.50;96522.00;;;;4982853;28;20206;-68
2024/02/06 13:17:21;;;;;;;610.80;559.33;;;;;30.50;96504.00;;;;4976493;28;20608;-68
2024/02/06 13:20:13;;;;;;;626.97;575.20;;;;;31.00;96514.00;;;;4976862;28;20221;-69
2024/02/06 13:23:10;;;;;;;642.93;591.40;;;;;31.40;96512.00;;;;4976656;28;20184;-68
2024/02/06 13:26:03;;;;;;;649.83;598.13;;;;;31.40;96516.00;;;;4981335;28;20210;-68
2024/02/06 13:28:58;;;;;;;658.47;606.77;;;;;29.90;96530.00;;;;4990036;28;20611;-68
2024/02/06 13:31:47;;;;;;;654.73;603.50;;;;;30.10;96534.00;;;;4987717;28;20222;-68
2024/02/06 13:34:36;;;;;;;670.93;617.97;;;;;29.30;96531.00;;;;4965903;28;20686;-68
2024/02/06 13:37:29;;;;;;;652.17;599.97;;;;;29.40;96507.00;;;;4981145;28;20238;-67
2024/02/06 13:40:18;;;;;;;637.63;585.73;;;;;29.40;96520.00;;;;4984390;28;20592;-67
2024/02/06 13:43:08;;;;;;;660.27;607.57;;;;;29.10;96525.00;;;;4986147;28;20275;-68